Terminal Aerodrome Forecast
Issued by NWS

Home | Current Version | Previous Version | Text Only | Print | Product List | Glossary On
Versions: 1 2 3 4 5 6 7 8 9 10 11 12 13 14 15 16 17 18 19 20 21 22
000
FTUS43 KAPX 302320
TAFTVC
TAF
KTVC 302320Z 3100/3124 08011G20KT 6SM -RA BKN015 OVC025
     FM310900 05011G20KT P6SM VCSH OVC015
     FM311400 03011G20KT P6SM VCSH OVC022=

USA.gov is the U.S. government's official web portal to all federal, state and local government web resources and services.